sensor_id;sensor_type;location;lat;lon;timestamp;temperature;humidity
30047;DHT22;16878;52.542;13.426;2022-08-18T06:28:37;27.40;71.90
30047;DHT22;16878;52.542;13.426;2022-08-18T06:31:08;28.40;89.30
30047;DHT22;16878;52.542;13.426;2022-08-18T06:36:13;29.40;86.00
30047;DHT22;16878;52.542;13.426;2022-08-18T06:38:46;30.10;84.20
30047;DHT22;16878;52.542;13.426;2022-08-18T06:41:31;31.10;81.60
30047;DHT22;16878;52.542;13.426;2022-08-18T06:44:09;32.30;76.60
30047;DHT22;16878;52.542;13.426;2022-08-18T06:46:40;32.20;76.80
30047;DHT22;16878;52.542;13.426;2022-08-18T06:49:10;31.80;76.10
30047;DHT22;16878;52.542;13.426;2022-08-18T06:51:36;30.90;77.00
30047;DHT22;16878;52.542;13.426;2022-08-18T16:28:58;30.10;78.40
30047;DHT22;16878;52.542;13.426;2022-08-18T16:31:24;28.70;77.60
30047;DHT22;16878;52.542;13.426;2022-08-18T16:33:51;28.50;78.40
30047;DHT22;16878;52.542;13.426;2022-08-18T16:36:17;28.40;78.10
30047;DHT22;16878;52.542;13.426;2022-08-18T16:38:43;28.30;78.90
30047;DHT22;16878;52.542;13.426;2022-08-18T16:41:11;28.10;79.20
30047;DHT22;16878;52.542;13.426;2022-08-18T16:58:17;28.00;79.70
30047;DHT22;16878;52.542;13.426;2022-08-18T17:01:01;23.60;99.90
30047;DHT22;16878;52.542;13.426;2022-08-18T17:04:05;22.80;99.90
30047;DHT22;16878;52.542;13.426;2022-08-18T17:06:31;22.40;99.90
30047;DHT22;16878;52.542;13.426;2022-08-18T17:08:57;22.20;99.90
30047;DHT22;16878;52.542;13.426;2022-08-18T17:11:23;22.20;99.90
30047;DHT22;16878;52.542;13.426;2022-08-18T17:13:51;22.30;99.90
30047;DHT22;16878;52.542;13.426;2022-08-18T17:16:18;22.20;99.90
30047;DHT22;16878;52.542;13.426;2022-08-18T17:18:44;22.40;99.90
30047;DHT22;16878;52.542;13.426;2022-08-18T17:21:13;22.40;99.90
30047;DHT22;16878;52.542;13.426;2022-08-18T17:23:39;22.50;99.90
30047;DHT22;16878;52.542;13.426;2022-08-18T17:26:06;22.70;99.90
30047;DHT22;16878;52.542;13.426;2022-08-18T17:28:42;22.50;99.90
30047;DHT22;16878;52.542;13.426;2022-08-18T17:31:08;22.50;99.90
30047;DHT22;16878;52.542;13.426;2022-08-18T17:33:36;22.40;99.90
30047;DHT22;16878;52.542;13.426;2022-08-18T17:36:03;22.60;99.90
30047;DHT22;16878;52.542;13.426;2022-08-18T17:55:52;22.70;99.90
30047;DHT22;16878;52.542;13.426;2022-08-18T18:01:09;23.40;99.90
30047;DHT22;16878;52.542;13.426;2022-08-18T18:03:35;23.40;99.90
30047;DHT22;16878;52.542;13.426;2022-08-18T18:11:16;23.30;99.90
30047;DHT22;16878;52.542;13.426;2022-08-18T18:13:48;23.30;99.90
30047;DHT22;16878;52.542;13.426;2022-08-18T18:19:04;23.20;99.90
30047;DHT22;16878;52.542;13.426;2022-08-18T18:21:31;23.30;99.90
30047;DHT22;16878;52.542;13.426;2022-08-18T18:29:31;23.10;99.90
30047;DHT22;16878;52.542;13.426;2022-08-18T18:32:05;23.00;99.90
30047;DHT22;16878;52.542;13.426;2022-08-18T18:34:33;22.90;99.90
30047;DHT22;16878;52.542;13.426;2022-08-18T18:37:04;22.90;99.90
30047;DHT22;16878;52.542;13.426;2022-08-18T18:39:32;22.90;99.90
30047;DHT22;16878;52.542;13.426;2022-08-18T18:42:16;22.80;99.90
30047;DHT22;16878;52.542;13.426;2022-08-18T18:44:54;22.80;99.90
30047;DHT22;16878;52.542;13.426;2022-08-18T18:47:25;22.80;99.90
30047;DHT22;16878;52.542;13.426;2022-08-18T18:49:58;22.80;99.90
30047;DHT22;16878;52.542;13.426;2022-08-18T18:52:31;22.80;99.90
30047;DHT22;16878;52.542;13.426;2022-08-18T18:55:11;22.70;99.90
30047;DHT22;16878;52.542;13.426;2022-08-18T19:03:05;22.70;99.90
30047;DHT22;16878;52.542;13.426;2022-08-18T19:08:13;22.80;99.90
30047;DHT22;16878;52.542;13.426;2022-08-18T19:13:16;22.80;99.90
30047;DHT22;16878;52.542;13.426;2022-08-18T19:15:43;22.80;99.90
30047;DHT22;16878;52.542;13.426;2022-08-18T19:18:18;22.80;99.90
30047;DHT22;16878;52.542;13.426;2022-08-18T19:20:46;22.80;99.90
30047;DHT22;16878;52.542;13.426;2022-08-18T19:25:58;22.80;99.90
30047;DHT22;16878;52.542;13.426;2022-08-18T19:30:54;22.90;99.90
30047;DHT22;16878;52.542;13.426;2022-08-18T19:33:35;22.90;99.90
30047;DHT22;16878;52.542;13.426;2022-08-18T19:38:41;23.00;99.90
30047;DHT22;16878;52.542;13.426;2022-08-18T19:41:12;23.00;99.90
30047;DHT22;16878;52.542;13.426;2022-08-18T19:49:03;23.10;99.90
30047;DHT22;16878;52.542;13.426;2022-08-18T19:57:09;23.20;99.90
30047;DHT22;16878;52.542;13.426;2022-08-18T20:04:34;23.20;99.90
30047;DHT22;16878;52.542;13.426;2022-08-18T20:07:09;23.20;99.90
30047;DHT22;16878;52.542;13.426;2022-08-18T20:09:53;23.20;99.90
30047;DHT22;16878;52.542;13.426;2022-08-18T20:15:12;23.20;99.90
30047;DHT22;16878;52.542;13.426;2022-08-18T20:17:58;23.10;99.90
30047;DHT22;16878;52.542;13.426;2022-08-18T20:20:25;23.10;99.90
30047;DHT22;16878;52.542;13.426;2022-08-18T20:22:52;23.00;99.90
30047;DHT22;16878;52.542;13.426;2022-08-18T20:25:33;22.90;99.90
30047;DHT22;16878;52.542;13.426;2022-08-18T20:30:31;22.70;99.90
30047;DHT22;16878;52.542;13.426;2022-08-18T20:35:30;22.80;99.90
30047;DHT22;16878;52.542;13.426;2022-08-18T20:40:42;22.80;99.90
30047;DHT22;16878;52.542;13.426;2022-08-18T20:43:25;22.90;99.90
30047;DHT22;16878;52.542;13.426;2022-08-18T20:45:55;23.00;99.90
30047;DHT22;16878;52.542;13.426;2022-08-18T20:51:07;23.10;99.90
30047;DHT22;16878;52.542;13.426;2022-08-18T20:53:44;23.20;99.90
30047;DHT22;16878;52.542;13.426;2022-08-18T20:56:16;23.20;99.90
30047;DHT22;16878;52.542;13.426;2022-08-18T20:58:49;23.30;99.90
30047;DHT22;16878;52.542;13.426;2022-08-18T21:01:16;23.30;99.90
30047;DHT22;16878;52.542;13.426;2022-08-18T21:03:43;23.40;99.90
30047;DHT22;16878;52.542;13.426;2022-08-18T21:06:09;23.40;99.90
30047;DHT22;16878;52.542;13.426;2022-08-18T21:08:36;23.40;99.90
30047;DHT22;16878;52.542;13.426;2022-08-18T21:13:36;23.40;99.90
30047;DHT22;16878;52.542;13.426;2022-08-18T21:16:05;23.40;99.90
30047;DHT22;16878;52.542;13.426;2022-08-18T21:18:31;23.20;99.90
30047;DHT22;16878;52.542;13.426;2022-08-18T21:20:59;23.20;99.90
30047;DHT22;16878;52.542;13.426;2022-08-18T21:23:26;23.20;99.90
30047;DHT22;16878;52.542;13.426;2022-08-18T21:25:55;23.20;99.90
30047;DHT22;16878;52.542;13.426;2022-08-18T21:28:22;23.00;99.90
30047;DHT22;16878;52.542;13.426;2022-08-18T21:31:50;22.70;99.90
30047;DHT22;16878;52.542;13.426;2022-08-18T21:33:47;22.40;99.90
30047;DHT22;16878;52.542;13.426;2022-08-18T21:36:16;22.30;99.90
30047;DHT22;16878;52.542;13.426;2022-08-18T21:38:49;22.30;99.90
30047;DHT22;16878;52.542;13.426;2022-08-18T21:41:15;22.30;99.90
30047;DHT22;16878;52.542;13.426;2022-08-18T21:43:45;22.20;99.90
30047;DHT22;16878;52.542;13.426;2022-08-18T21:46:11;22.20;99.90
30047;DHT22;16878;52.542;13.426;2022-08-18T21:48:44;22.10;99.90
30047;DHT22;16878;52.542;13.426;2022-08-18T21:51:16;21.90;99.90
30047;DHT22;16878;52.542;13.426;2022-08-18T21:53:42;21.90;99.90
30047;DHT22;16878;52.542;13.426;2022-08-18T21:56:17;22.00;99.90
30047;DHT22;16878;52.542;13.426;2022-08-18T21:58:43;22.00;99.90
30047;DHT22;16878;52.542;13.426;2022-08-18T22:01:30;22.10;99.90
30047;DHT22;16878;52.542;13.426;2022-08-18T22:08:59;22.40;99.90
30047;DHT22;16878;52.542;13.426;2022-08-18T22:11:45;22.50;99.90
30047;DHT22;16878;52.542;13.426;2022-08-18T22:14:40;22.50;99.90
30047;DHT22;16878;52.542;13.426;2022-08-18T22:19:47;22.70;99.90
30047;DHT22;16878;52.542;13.426;2022-08-18T22:22:13;22.70;99.90
30047;DHT22;16878;52.542;13.426;2022-08-18T22:24:59;22.80;99.90
30047;DHT22;16878;52.542;13.426;2022-08-18T22:27:26;22.70;99.90
30047;DHT22;16878;52.542;13.426;2022-08-18T22:29:52;22.80;99.90
30047;DHT22;16878;52.542;13.426;2022-08-18T22:32:19;22.80;99.90
30047;DHT22;16878;52.542;13.426;2022-08-18T22:34:46;22.80;99.90
30047;DHT22;16878;52.542;13.426;2022-08-18T22:37:13;22.80;99.90
30047;DHT22;16878;52.542;13.426;2022-08-18T22:42:12;22.80;99.90
30047;DHT22;16878;52.542;13.426;2022-08-18T22:44:38;22.80;99.90
30047;DHT22;16878;52.542;13.426;2022-08-18T22:47:04;22.80;99.90
30047;DHT22;16878;52.542;13.426;2022-08-18T22:49:30;22.80;99.90
30047;DHT22;16878;52.542;13.426;2022-08-18T22:52:00;22.70;99.90
30047;DHT22;16878;52.542;13.426;2022-08-18T22:54:25;22.70;99.90
30047;DHT22;16878;52.542;13.426;2022-08-18T22:56:51;22.60;99.90
30047;DHT22;16878;52.542;13.426;2022-08-18T22:59:17;22.70;99.90
30047;DHT22;16878;52.542;13.426;2022-08-18T23:01:44;22.60;99.90
30047;DHT22;16878;52.542;13.426;2022-08-18T23:04:10;22.60;99.90
30047;DHT22;16878;52.542;13.426;2022-08-18T23:06:36;22.70;99.90
30047;DHT22;16878;52.542;13.426;2022-08-18T23:09:02;22.60;99.90
30047;DHT22;16878;52.542;13.426;2022-08-18T23:11:28;22.60;99.90
30047;DHT22;16878;52.542;13.426;2022-08-18T23:13:55;22.60;99.90
30047;DHT22;16878;52.542;13.426;2022-08-18T23:16:21;22.60;99.90
30047;DHT22;16878;52.542;13.426;2022-08-18T23:18:47;22.60;99.90
30047;DHT22;16878;52.542;13.426;2022-08-18T23:21:13;22.60;99.90
30047;DHT22;16878;52.542;13.426;2022-08-18T23:23:38;22.60;99.90
30047;DHT22;16878;52.542;13.426;2022-08-18T23:26:04;22.60;99.90
30047;DHT22;16878;52.542;13.426;2022-08-18T23:28:30;22.60;99.90
30047;DHT22;16878;52.542;13.426;2022-08-18T23:30:56;22.60;99.90
30047;DHT22;16878;52.542;13.426;2022-08-18T23:33:22;22.50;99.90
30047;DHT22;16878;52.542;13.426;2022-08-18T23:35:48;22.50;99.90
30047;DHT22;16878;52.542;13.426;2022-08-18T23:38:14;22.60;99.90
30047;DHT22;16878;52.542;13.426;2022-08-18T23:40:42;22.60;99.90
30047;DHT22;16878;52.542;13.426;2022-08-18T23:43:08;22.60;99.90
30047;DHT22;16878;52.542;13.426;2022-08-18T23:45:37;22.50;99.90
30047;DHT22;16878;52.542;13.426;2022-08-18T23:48:03;22.50;99.90
30047;DHT22;16878;52.542;13.426;2022-08-18T23:50:31;22.50;99.90
30047;DHT22;16878;52.542;13.426;2022-08-18T23:52:57;22.50;99.90
30047;DHT22;16878;52.542;13.426;2022-08-18T23:55:23;22.50;99.90
30047;DHT22;16878;52.542;13.426;2022-08-18T23:57:48;22.50;99.90
